This is the latest recevied weather packets stored in our database for station/object FHDOHA-13. If no packets are shown the sender has not sent any weather packets the latest 10 day(s).
| Time | Temp. | Humidity | Pressure | Rain* | Wind** | Luminosity | Snow |
|---|---|---|---|---|---|---|---|
| 1777239971 | 6.67° C | 64% | 1024.8 hPa | 0 mm | - | - | - |
| 1777239071 | 6.67° C | 63% | 1024.7 hPa | 0 mm | - | - | - |
| 1777238171 | 7.22° C | 63% | 1024.7 hPa | 0 mm | - | - | - |
| 1777237271 | 7.22° C | 62% | 1024.7 hPa | 0 mm | - | - | - |
| 1777236371 | 7.78° C | 61% | 1024.6 hPa | 0 mm | - | - | - |
| 1777235471 | 7.78° C | 59% | 1024.6 hPa | 0 mm | - | - | - |
| 1777234571 | 8.33° C | 59% | 1024.6 hPa | 0 mm | - | - | - |
| 1777233671 | 8.89° C | 57% | 1024.5 hPa | 0 mm | - | - | - |
| 1777232771 | 9.44° C | 56% | 1024.5 hPa | 0 mm | - | - | - |
| 1777231871 | 10° C | 55% | 1024.4 hPa | 0 mm | - | - | - |
| 1777230971 | 10.56° C | 55% | 1024.3 hPa | 0 mm | - | - | - |
| 1777230071 | 11.67° C | 48% | 1023.2 hPa | 0 mm | - | - | - |
| 1777229171 | 12.22° C | 44% | 1023.1 hPa | 0 mm | - | - | - |
| 1777228271 | 12.78° C | 41% | 1023 hPa | 0 mm | - | - | - |
| 1777227371 | 15° C | 40% | 1022.8 hPa | 0 mm | - | - | - |
| 1777226471 | 15° C | 38% | 1022.8 hPa | 0 mm | - | - | - |
| 1777225571 | 16.67° C | 38% | 1022.6 hPa | 0 mm | - | - | - |
| 1777224671 | 14.44° C | 41% | 1022.9 hPa | 0 mm | - | - | - |
| 1777223772 | 15° C | 41% | 1022.8 hPa | 0 mm | - | - | - |
| 1777222871 | 14.44° C | 41% | 1022.9 hPa | 0 mm | - | - | - |
| 1777221971 | 14.44° C | 42% | 1023.9 hPa | 0 mm | - | - | - |
| 1777221071 | 14.44° C | 42% | 1023.9 hPa | 0 mm | - | - | - |
| 1777220171 | 14.44° C | 42% | 1023.9 hPa | 0 mm | - | - | - |
| 1777219271 | 15° C | 41% | 1023.8 hPa | 0 mm | - | - | - |
| 1777218371 | 15° C | 41% | 1023.8 hPa | 0 mm | - | - | - |
* Rain latest hour (hover to see other rain measurements)
** Current wind speed in m/s (hover to see current wind gust speed)